Time;durP1;ratioP1;P1;durP2;ratioP2;P2;SDS_P1;SDS_P2;PMS_P1;PMS_P2;Temp;Humidity;BMP_temperature;BMP_pressure;BME280_temperature;BME280_humidity;BME280_pressure;Samples;Min_cycle;Max_cycle;Signal;HPM_P1;HPM_P2
2023/07/21 00:01:12;;;;;;;5.60;3.60;;;;;;;27.10;53.56;100845.94;107128;1264;23848;-51
2023/07/21 00:03:39;;;;;;;6.30;4.00;;;;;;;27.06;52.99;100845.91;106810;1267;25230;-50
2023/07/21 00:06:06;;;;;;;4.80;4.20;;;;;;;27.03;53.26;100843.52;107083;1263;25350;-51
2023/07/21 00:08:34;;;;;;;4.40;3.80;;;;;;;26.99;53.72;100841.05;107207;1251;24223;-52
2023/07/21 00:11:02;;;;;;;5.40;4.10;;;;;;;26.97;54.38;100843.55;107146;1260;25373;-51
2023/07/21 00:13:36;;;;;;;4.10;3.70;;;;;;;26.93;54.29;100843.53;107037;1260;24454;-50
2023/07/21 00:16:04;;;;;;;4.80;4.10;;;;;;;26.88;54.03;100843.31;107128;1264;25342;-50
2023/07/21 00:18:32;;;;;;;4.50;4.10;;;;;;;26.83;54.26;100844.25;106982;1260;25341;-50
2023/07/21 00:20:59;;;;;;;6.00;4.10;;;;;;;26.79;54.29;100843.02;107102;1253;24197;-49
2023/07/21 00:23:27;;;;;;;4.90;4.20;;;;;;;26.74;54.48;100847.39;106950;1264;25351;-50
2023/07/21 00:25:55;;;;;;;4.20;3.60;;;;;;;26.70;54.53;100849.81;106790;1257;25476;-50
2023/07/21 00:28:25;;;;;;;5.20;3.70;;;;;;;26.67;55.20;100851.67;107033;1268;25358;-51
2023/07/21 00:30:52;;;;;;;4.50;4.10;;;;;;;26.66;55.21;100850.61;107114;1264;25373;-50
2023/07/21 00:33:25;;;;;;;5.90;3.60;;;;;;;26.62;55.11;100851.97;107092;1265;25399;-50
2023/07/21 00:35:52;;;;;;;5.70;4.00;;;;;;;26.59;55.06;100851.73;106828;1270;25349;-50
2023/07/21 00:38:21;;;;;;;5.60;4.00;;;;;;;26.57;55.64;100848.31;106851;1268;25473;-50
2023/07/21 00:40:48;;;;;;;4.60;4.10;;;;;;;26.56;56.37;100854.09;107127;1263;25479;-50
2023/07/21 00:43:18;;;;;;;4.10;3.70;;;;;;;26.54;56.21;100859.23;107039;1260;25414;-51
2023/07/21 00:45:46;;;;;;;5.50;3.70;;;;;;;26.52;56.23;100862.12;107121;1261;25319;-50
2023/07/21 00:48:16;;;;;;;5.00;4.50;;;;;;;26.50;55.56;100866.71;107155;1260;24202;-50
2023/07/21 00:50:52;;;;;;;4.80;3.70;;;;;;;26.49;55.73;100868.61;106829;1268;22583;-49
2023/07/21 00:53:19;;;;;;;6.10;3.90;;;;;;;26.48;55.40;100872.09;106611;1267;25373;-50
2023/07/21 00:55:47;;;;;;;6.90;3.80;;;;;;;26.47;55.11;100867.15;106830;1260;25401;-50
2023/07/21 00:58:14;;;;;;;5.20;4.10;;;;;;;26.47;54.79;100870.03;107094;1258;25477;-49
2023/07/21 01:00:42;;;;;;;3.90;3.40;;;;;;;26.46;54.29;100864.55;107160;1264;25368;-50
2023/07/21 01:03:10;;;;;;;4.40;3.70;;;;;;;26.46;53.56;100864.41;106854;1275;25406;-50
2023/07/21 01:05:43;;;;;;;4.50;4.00;;;;;;;26.45;53.49;100866.60;107106;1260;25350;-50
2023/07/21 01:08:11;;;;;;;7.90;4.20;;;;;;;26.44;53.20;100868.17;106789;1268;22643;-50
2023/07/21 01:10:39;;;;;;;5.80;3.50;;;;;;;26.43;53.23;100871.98;106864;1267;25557;-50
2023/07/21 01:13:06;;;;;;;4.90;3.80;;;;;;;26.42;53.35;100875.77;107072;1260;25440;-49
2023/07/21 01:15:35;;;;;;;3.50;3.20;;;;;;;26.42;52.88;100877.98;107156;1260;25328;-50
2023/07/21 01:18:02;;;;;;;5.20;3.60;;;;;;;26.40;52.86;100881.97;106849;1263;22536;-50
2023/07/21 01:20:29;;;;;;;4.90;4.30;;;;;;;26.41;53.49;100883.39;107113;1267;25475;-50
2023/07/21 01:23:21;;;;;;;5.10;3.90;;;;;;;26.40;53.60;100888.60;107102;1264;25347;-50
2023/07/21 01:25:49;;;;;;;5.20;3.90;;;;;;;26.38;53.73;100897.52;106550;1273;25403;-50
2023/07/21 01:28:16;;;;;;;6.90;4.20;;;;;;;26.35;53.51;100901.16;106338;1266;25374;-51
2023/07/21 01:30:45;;;;;;;3.90;3.40;;;;;;;26.31;53.57;100907.65;106235;1275;25350;-49
2023/07/21 01:33:13;;;;;;;4.50;4.10;;;;;;;26.29;53.62;100908.80;106351;1276;25350;-50
2023/07/21 01:35:41;;;;;;;5.10;3.60;;;;;;;26.26;53.39;100910.30;106592;1264;25325;-50
2023/07/21 01:38:09;;;;;;;4.10;3.70;;;;;;;26.22;53.06;100910.82;106412;1267;25509;-50
2023/07/21 01:40:36;;;;;;;5.80;4.20;;;;;;;26.19;53.52;100913.94;106358;1267;25380;-49
2023/07/21 01:43:04;;;;;;;4.30;3.30;;;;;;;26.16;53.79;100920.16;106367;1277;25405;-50
2023/07/21 01:45:31;;;;;;;4.80;3.60;;;;;;;26.15;53.86;100921.40;106594;1259;24249;-49
2023/07/21 01:47:58;;;;;;;4.70;3.60;;;;;;;26.13;54.07;100927.70;106624;1269;25343;-50
2023/07/21 01:50:25;;;;;;;4.50;3.80;;;;;;;26.12;54.04;100924.95;106211;1274;25494;-52
2023/07/21 01:52:53;;;;;;;4.30;3.90;;;;;;;26.11;54.25;100933.58;106362;1273;22649;-51
2023/07/21 01:55:25;;;;;;;3.90;3.60;;;;;;;26.10;54.13;100932.98;106318;1260;25476;-49
2023/07/21 01:57:55;;;;;;;4.70;3.40;;;;;;;26.09;54.38;100940.53;106110;1280;25348;-51
2023/07/21 02:00:23;;;;;;;6.10;3.80;;;;;;;26.07;54.79;100941.05;106325;1271;22588;-52
2023/07/21 02:02:51;;;;;;;3.90;3.60;;;;;;;26.05;54.71;100943.02;106484;1270;25468;-51
2023/07/21 02:05:20;;;;;;;4.30;3.30;;;;;;;26.03;54.48;100945.45;106643;1266;24395;-49
2023/07/21 02:07:48;;;;;;;4.50;3.10;;;;;;;26.01;53.78;100956.48;106677;1262;24288;-50
2023/07/21 02:10:16;;;;;;;3.90;3.60;;;;;;;26.00;54.31;100962.80;106802;1263;22540;-50
2023/07/21 02:12:47;;;;;;;3.50;3.20;;;;;;;25.99;54.17;100969.60;106707;1273;25481;-50
2023/07/21 02:15:14;;;;;;;3.80;3.50;;;;;;;25.98;54.37;100973.58;106578;1271;25366;-50
2023/07/21 02:17:42;;;;;;;3.20;2.90;;;;;;;25.96;53.96;100971.66;106474;1276;25486;-51
2023/07/21 02:20:10;;;;;;;3.50;3.20;;;;;;;25.93;53.32;100973.33;106733;1266;22562;-50
2023/07/21 02:22:40;;;;;;;5.20;3.50;;;;;;;25.89;53.45;100975.45;106749;1271;25373;-50
2023/07/21 02:25:10;;;;;;;3.80;3.30;;;;;;;25.87;53.59;100979.87;106484;1268;22566;-50
2023/07/21 02:27:38;;;;;;;4.60;4.00;;;;;;;25.83;53.31;100984.23;106664;1269;22650;-50
2023/07/21 02:30:06;;;;;;;3.40;3.10;;;;;;;25.79;53.46;100985.27;106627;1270;25354;-50
2023/07/21 02:32:36;;;;;;;3.70;3.40;;;;;;;25.75;53.36;100990.61;106404;1273;25360;-50
2023/07/21 02:35:05;;;;;;;3.50;3.20;;;;;;;25.71;53.71;100990.17;106732;1269;25331;-50
2023/07/21 02:37:32;;;;;;;3.20;2.90;;;;;;;25.68;53.35;100989.56;106816;1263;24205;-50
2023/07/21 02:40:00;;;;;;;5.10;2.90;;;;;;;25.66;53.20;100993.48;106810;1269;25379;-50
2023/07/21 02:42:27;;;;;;;4.10;3.00;;;;;;;25.61;53.14;100994.39;106828;1267;22559;-50
2023/07/21 02:44:55;;;;;;;2.90;2.70;;;;;;;25.58;53.30;101000.52;106819;1267;25520;-50
2023/07/21 02:47:22;;;;;;;4.30;2.80;;;;;;;25.55;53.42;101006.42;106715;1269;24570;-49
2023/07/21 02:49:49;;;;;;;4.70;3.30;;;;;;;25.52;53.08;101008.45;106878;1258;25354;-50
2023/07/21 02:52:16;;;;;;;3.60;3.10;;;;;;;25.48;53.14;101015.48;106909;1254;25358;-50
2023/07/21 02:54:46;;;;;;;4.10;3.00;;;;;;;25.45;53.55;101017.36;107139;1256;25321;-50
2023/07/21 02:57:14;;;;;;;6.20;3.40;;;;;;;25.43;53.81;101021.13;107102;1264;25303;-50
2023/07/21 02:59:41;;;;;;;3.80;2.90;;;;;;;25.41;53.85;101027.14;106748;1263;23869;-50
2023/07/21 03:02:09;;;;;;;3.50;2.90;;;;;;;25.39;53.81;101039.51;106957;1270;25504;-50
2023/07/21 03:04:43;;;;;;;5.20;3.20;;;;;;;25.35;53.77;101041.01;106748;1266;25393;-50
2023/07/21 03:07:12;;;;;;;3.90;3.30;;;;;;;25.31;53.53;101047.55;106592;1274;25446;-50
2023/07/21 03:09:41;;;;;;;4.30;3.30;;;;;;;25.26;53.75;101046.55;106828;1259;25377;-49
2023/07/21 03:12:17;;;;;;;3.80;3.20;;;;;;;25.23;53.95;101051.99;106326;1273;25328;-50
2023/07/21 03:15:06;;;;;;;3.40;2.90;;;;;;;25.20;54.25;101056.63;106733;1258;22530;-49
2023/07/21 03:17:46;;;;;;;4.60;3.30;;;;;;;25.18;54.71;101063.88;106674;1261;25400;-50
2023/07/21 03:20:15;;;;;;;5.50;3.40;;;;;;;25.16;54.27;101060.52;106782;1270;25456;-50
2023/07/21 03:22:43;;;;;;;3.30;3.00;;;;;;;25.12;53.82;101059.42;106801;1260;25370;-50
2023/07/21 03:25:13;;;;;;;3.20;2.90;;;;;;;25.09;53.83;101063.20;106511;1263;24271;-50
2023/07/21 03:27:40;;;;;;;5.50;3.30;;;;;;;25.07;54.25;101065.70;106789;1270;24038;-49
2023/07/21 03:30:13;;;;;;;3.60;3.30;;;;;;;25.04;53.51;101068.50;106849;1266;25407;-49
2023/07/21 03:32:46;;;;;;;5.30;3.50;;;;;;;25.01;53.33;101071.22;107134;1260;25399;-49
2023/07/21 03:35:14;;;;;;;3.80;3.10;;;;;;;24.98;53.54;101076.66;107088;1264;25351;-49
2023/07/21 03:37:42;;;;;;;3.10;2.90;;;;;;;24.94;53.87;101076.41;106904;1256;25502;-49
2023/07/21 03:40:10;;;;;;;3.40;3.10;;;;;;;24.93;54.20;101074.74;106823;1267;22706;-50
2023/07/21 03:42:39;;;;;;;3.40;3.10;;;;;;;24.93;54.38;101075.05;106769;1260;25360;-50
2023/07/21 03:45:08;;;;;;;3.80;3.20;;;;;;;24.97;54.27;101081.36;107019;1260;22530;-50
2023/07/21 03:47:40;;;;;;;3.20;2.80;;;;;;;24.99;54.15;101085.43;106969;1267;25402;-50
2023/07/21 03:50:10;;;;;;;3.60;3.30;;;;;;;25.03;53.90;101084.95;107055;1264;25363;-51
2023/07/21 03:52:41;;;;;;;3.30;3.00;;;;;;;25.13;53.75;101086.13;106973;1254;22577;-50
2023/07/21 03:55:08;;;;;;;4.30;3.00;;;;;;;25.28;53.40;101093.79;107042;1264;25584;-50
2023/07/21 03:57:36;;;;;;;3.50;3.20;;;;;;;25.51;53.05;101102.89;106811;1262;25471;-49
2023/07/21 04:00:05;;;;;;;4.50;2.80;;;;;;;25.75;52.35;101103.38;106877;1270;25400;-51
2023/07/21 04:02:41;;;;;;;5.60;3.10;;;;;;;25.95;52.35;101107.20;107100;1253;25398;-50
2023/07/21 04:05:10;;;;;;;3.70;3.20;;;;;;;26.01;52.21;101108.77;107184;1256;25364;-50
2023/07/21 04:07:37;;;;;;;6.20;3.00;;;;;;;26.00;52.05;101119.05;107072;1267;25415;-50
2023/07/21 04:10:06;;;;;;;3.70;2.90;;;;;;;25.92;51.67;101123.60;107115;1253;25354;-49
2023/07/21 04:12:34;;;;;;;3.40;2.90;;;;;;;25.82;51.74;101127.73;107057;1259;22553;-50
2023/07/21 04:15:01;;;;;;;4.70;3.30;;;;;;;25.74;51.70;101135.65;106850;1267;25474;-50
2023/07/21 04:17:31;;;;;;;4.70;3.40;;;;;;;25.64;52.26;101139.31;106888;1262;25460;-50
2023/07/21 04:19:58;;;;;;;3.60;3.30;;;;;;;25.53;52.07;101141.21;106918;1269;25370;-50
2023/07/21 04:22:26;;;;;;;3.70;3.00;;;;;;;25.44;52.15;101144.27;107126;1253;25484;-50
2023/07/21 04:24:53;;;;;;;5.50;3.20;;;;;;;25.38;52.62;101150.89;106731;1260;25345;-50
2023/07/21 04:27:22;;;;;;;3.20;2.80;;;;;;;25.34;52.69;101156.06;106857;1263;22549;-50
2023/07/21 04:29:49;;;;;;;3.60;3.10;;;;;;;25.31;52.58;101158.77;107169;1254;25332;-50
2023/07/21 04:32:16;;;;;;;6.50;3.50;;;;;;;25.27;52.17;101164.73;107068;1263;25411;-50
2023/07/21 04:34:44;;;;;;;4.50;3.40;;;;;;;25.23;52.53;101170.56;107013;1265;25427;-50
2023/07/21 04:37:13;;;;;;;3.60;3.20;;;;;;;25.21;52.51;101177.80;107138;1262;25353;-50
2023/07/21 04:39:45;;;;;;;4.20;3.30;;;;;;;25.18;52.56;101174.35;107089;1252;23717;-50
2023/07/21 04:42:13;;;;;;;5.00;3.30;;;;;;;25.15;52.90;101179.52;107078;1263;22527;-49
2023/07/21 04:44:43;;;;;;;4.40;3.10;;;;;;;25.12;53.03;101180.63;107101;1253;25321;-50
2023/07/21 04:47:10;;;;;;;3.10;2.80;;;;;;;25.11;53.20;101182.87;106723;1271;25421;-50
2023/07/21 04:49:42;;;;;;;3.10;2.70;;;;;;;25.10;53.18;101183.98;106738;1267;25330;-50
2023/07/21 04:52:11;;;;;;;4.30;3.00;;;;;;;25.10;52.82;101185.40;106750;1267;25332;-50
2023/07/21 04:54:38;;;;;;;3.50;3.20;;;;;;;24.96;53.80;101188.29;106700;1270;25364;-50
2023/07/21 04:57:06;;;;;;;3.90;3.40;;;;;;;24.90;54.15;101192.46;106664;1268;25427;-50
2023/07/21 04:59:33;;;;;;;3.40;3.00;;;;;;;24.89;54.19;101195.14;106779;1268;25392;-50
2023/07/21 05:02:02;;;;;;;4.30;3.30;;;;;;;24.91;53.77;101200.52;106716;1256;25332;-50
2023/07/21 05:04:30;;;;;;;2.90;2.70;;;;;;;24.93;53.39;101204.98;106675;1269;25534;-50
2023/07/21 05:07:03;;;;;;;5.00;3.30;;;;;;;24.96;53.33;101208.86;106852;1255;25392;-51
2023/07/21 05:09:32;;;;;;;3.80;3.20;;;;;;;24.95;53.18;101208.54;106644;1267;25266;-51
2023/07/21 05:12:04;;;;;;;5.40;3.30;;;;;;;24.89;53.50;101216.45;106692;1268;25857;-49
2023/07/21 05:14:51;;;;;;;3.80;3.20;;;;;;;24.93;53.98;101222.77;106710;1267;25415;-49
2023/07/21 05:17:37;;;;;;;3.70;3.00;;;;;;;25.03;53.77;101224.61;106669;1259;25402;-50
2023/07/21 05:20:24;;;;;;;3.40;3.10;;;;;;;25.22;53.44;101228.89;107048;1261;25412;-49
2023/07/21 05:23:24;;;;;;;3.20;3.00;;;;;;;25.46;52.43;101229.17;106632;1266;25607;-49
2023/07/21 05:26:01;;;;;;;3.50;2.80;;;;;;;25.68;51.71;101238.69;107067;1263;25492;-49
2023/07/21 05:28:31;;;;;;;4.40;3.00;;;;;;;25.77;51.38;101240.31;106855;1267;22548;-50
2023/07/21 05:30:58;;;;;;;4.10;3.00;;;;;;;25.79;51.16;101244.94;106976;1267;23181;-50
2023/07/21 05:33:35;;;;;;;3.50;3.10;;;;;;;25.78;50.94;101244.66;107023;1259;25391;-50
2023/07/21 05:36:07;;;;;;;3.50;2.90;;;;;;;25.77;51.36;101246.63;107012;1264;25334;-50
2023/07/21 05:38:35;;;;;;;3.50;3.20;;;;;;;25.82;51.56;101251.77;106820;1260;22700;-50
2023/07/21 05:41:02;;;;;;;4.90;3.30;;;;;;;25.90;51.37;101253.02;106805;1268;25504;-49
2023/07/21 05:43:32;;;;;;;3.80;3.10;;;;;;;25.99;51.39;101259.17;106617;1260;25546;-51
2023/07/21 05:46:03;;;;;;;6.90;3.30;;;;;;;26.11;51.17;101262.16;106994;1262;25332;-51
2023/07/21 05:48:31;;;;;;;3.40;3.10;;;;;;;26.22;50.48;101266.66;106881;1263;22527;-52
2023/07/21 05:51:01;;;;;;;4.00;3.30;;;;;;;26.31;50.19;101268.59;106735;1255;22540;-50
2023/07/21 05:53:31;;;;;;;3.70;3.10;;;;;;;26.40;50.22;101270.02;106766;1272;25335;-49
2023/07/21 05:56:01;;;;;;;5.00;3.90;;;;;;;26.52;50.03;101267.27;106781;1267;25360;-51
2023/07/21 05:58:45;;;;;;;4.40;3.70;;;;;;;26.68;49.48;101263.08;106986;1263;25388;-51
2023/07/21 06:01:12;;;;;;;5.80;3.50;;;;;;;26.85;48.76;101261.91;107039;1264;25460;-51
2023/07/21 06:03:40;;;;;;;4.50;3.70;;;;;;;27.00;48.32;101266.90;107156;1262;25373;-50
2023/07/21 06:06:09;;;;;;;3.60;2.90;;;;;;;27.12;48.08;101266.22;106834;1261;25390;-50
2023/07/21 06:08:59;;;;;;;3.10;2.80;;;;;;;27.19;47.64;101261.23;106747;1268;25373;-50
2023/07/21 06:11:37;;;;;;;4.50;3.10;;;;;;;27.25;47.80;101261.90;107024;1262;25398;-50
2023/07/21 06:14:30;;;;;;;3.60;3.20;;;;;;;27.30;47.74;101262.92;106913;1270;25325;-49
2023/07/21 06:17:19;;;;;;;4.10;2.90;;;;;;;27.35;48.10;101263.39;106892;1258;25461;-49
2023/07/21 06:19:49;;;;;;;3.80;3.10;;;;;;;27.44;48.17;101269.60;107017;1264;25360;-49
2023/07/21 06:22:16;;;;;;;3.20;2.80;;;;;;;27.56;48.14;101271.10;107109;1262;25335;-49
2023/07/21 06:24:44;;;;;;;4.10;3.00;;;;;;;27.71;47.62;101269.31;106790;1265;22537;-49
2023/07/21 06:27:12;;;;;;;3.20;2.70;;;;;;;27.86;47.10;101271.75;107119;1260;25797;-49
2023/07/21 06:29:40;;;;;;;4.30;3.10;;;;;;;27.96;47.03;101271.54;107079;1264;24224;-49
2023/07/21 06:32:10;;;;;;;3.40;2.80;;;;;;;28.02;46.80;101271.26;106967;1257;25345;-50
2023/07/21 06:34:57;;;;;;;4.80;3.30;;;;;;;28.01;46.81;101271.54;107165;1266;25335;-49
2023/07/21 06:37:42;;;;;;;3.80;3.00;;;;;;;27.99;46.55;101277.40;106844;1267;25383;-49
2023/07/21 06:40:30;;;;;;;3.20;2.90;;;;;;;27.95;46.71;101279.38;106717;1264;25284;-50
2023/07/21 06:43:17;;;;;;;3.50;3.20;;;;;;;27.90;46.75;101281.33;107198;1256;25360;-50
2023/07/21 06:46:03;;;;;;;3.90;2.80;;;;;;;27.85;46.68;101284.95;107108;1264;25404;-50
2023/07/21 06:48:46;;;;;;;4.20;3.00;;;;;;;27.83;47.37;101282.34;107036;1257;25482;-50
2023/07/21 06:51:24;;;;;;;3.00;2.70;;;;;;;27.81;47.56;101288.86;106795;1264;25336;-49
2023/07/21 06:53:55;;;;;;;3.50;2.80;;;;;;;27.81;47.13;101288.54;106965;1262;24395;-50
2023/07/21 06:56:23;;;;;;;3.10;2.80;;;;;;;27.79;46.91;101290.82;107028;1265;25485;-50
2023/07/21 06:58:50;;;;;;;3.10;2.80;;;;;;;27.75;47.08;101288.53;107122;1264;25341;-50
2023/07/21 07:01:17;;;;;;;4.90;3.30;;;;;;;27.72;47.66;101291.32;106803;1264;25364;-50
2023/07/21 07:03:44;;;;;;;3.70;2.80;;;;;;;27.72;47.85;101292.06;106827;1260;25339;-50
2023/07/21 07:06:15;;;;;;;2.90;2.70;;;;;;;27.72;47.44;101295.77;106941;1268;25335;-50
2023/07/21 07:08:42;;;;;;;3.70;3.40;;;;;;;27.74;47.43;101296.81;106818;1256;25536;-50
2023/07/21 07:11:11;;;;;;;3.90;3.00;;;;;;;27.75;47.56;101293.50;107087;1260;25336;-50
2023/07/21 07:13:40;;;;;;;;;;;;;;;27.78;47.97;101294.73;107089;1252;22562;-50
2023/07/21 07:16:09;;;;;;;2.70;2.50;;;;;;;27.81;47.85;101297.34;107093;1264;25344;-50
2023/07/21 07:18:36;;;;;;;3.60;3.30;;;;;;;27.84;47.26;101303.47;106869;1266;25485;-50
2023/07/21 07:21:03;;;;;;;3.70;3.10;;;;;;;27.90;47.22;101300.83;107048;1264;25367;-50
2023/07/21 07:23:31;;;;;;;3.00;2.70;;;;;;;27.98;47.22;101302.09;107085;1263;25335;-50
2023/07/21 07:26:01;;;;;;;4.30;2.80;;;;;;;28.09;47.20;101303.13;107157;1259;25437;-49
2023/07/21 07:28:29;;;;;;;3.30;3.00;;;;;;;28.21;46.98;101300.44;107132;1252;25366;-49
2023/07/21 07:30:56;;;;;;;3.20;2.90;;;;;;;28.33;46.60;101300.77;107164;1252;25485;-50
2023/07/21 07:33:23;;;;;;;4.10;3.50;;;;;;;28.44;46.12;101303.02;107160;1258;25341;-49
2023/07/21 07:35:52;;;;;;;3.90;3.40;;;;;;;28.52;45.62;101308.00;107127;1253;23336;-49
2023/07/21 07:38:27;;;;;;;3.20;2.80;;;;;;;28.56;45.24;101309.98;107047;1259;22537;-49
2023/07/21 07:40:54;;;;;;;3.00;2.60;;;;;;;28.58;44.89;101307.31;107056;1259;22520;-49
2023/07/21 07:43:21;;;;;;;2.60;2.40;;;;;;;28.59;44.86;101315.27;107047;1264;22753;-49
2023/07/21 07:45:49;;;;;;;4.60;2.80;;;;;;;28.60;44.85;101317.89;107088;1256;25357;-50
2023/07/21 07:48:16;;;;;;;3.10;2.80;;;;;;;28.58;44.79;101317.52;107083;1259;22549;-49
2023/07/21 07:50:43;;;;;;;5.10;2.80;;;;;;;28.56;45.54;101313.96;106901;1271;25463;-50
2023/07/21 07:53:11;;;;;;;6.60;3.30;;;;;;;28.53;45.85;101316.84;107237;1263;25366;-50
2023/07/21 07:55:41;;;;;;;3.30;3.00;;;;;;;28.49;45.95;101319.67;106631;1265;282735;-49
2023/07/21 07:58:08;;;;;;;4.50;3.30;;;;;;;28.47;46.57;101314.20;107123;1259;25418;-50
2023/07/21 08:00:38;;;;;;;7.40;3.00;;;;;;;28.46;46.45;101314.16;106748;1271;25335;-49
2023/07/21 08:03:05;;;;;;;4.60;3.50;;;;;;;28.44;46.54;101315.49;107141;1252;23098;-49
2023/07/21 08:05:34;;;;;;;3.20;3.00;;;;;;;28.45;46.52;101318.30;107232;1253;25409;-50
2023/07/21 08:08:02;;;;;;;4.00;2.90;;;;;;;28.46;46.24;101319.83;106835;1275;25402;-50
2023/07/21 08:10:30;;;;;;;3.10;2.80;;;;;;;28.47;46.22;101319.17;106855;1272;24238;-49
2023/07/21 08:12:58;;;;;;;4.10;3.10;;;;;;;28.49;46.19;101321.89;107148;1263;25463;-50
2023/07/21 08:15:25;;;;;;;4.00;3.30;;;;;;;28.52;46.15;101324.83;106810;1264;25391;-50
2023/07/21 08:17:53;;;;;;;4.70;3.00;;;;;;;28.55;45.82;101328.14;107087;1265;25334;-50
2023/07/21 08:20:20;;;;;;;3.30;3.00;;;;;;;28.57;45.34;101337.25;107052;1267;25345;-49
2023/07/21 08:22:48;;;;;;;3.30;2.80;;;;;;;28.61;45.49;101335.65;107120;1260;22580;-50
2023/07/21 08:25:15;;;;;;;5.30;2.90;;;;;;;28.65;45.52;101331.36;107109;1259;25335;-49
2023/07/21 08:27:43;;;;;;;2.90;2.70;;;;;;;28.70;45.52;101333.74;107077;1264;25390;-50
2023/07/21 08:30:10;;;;;;;2.80;2.50;;;;;;;28.76;44.85;101331.40;107186;1264;25360;-49
2023/07/21 08:32:40;;;;;;;3.30;2.80;;;;;;;28.84;44.59;101333.02;107121;1254;25354;-50
2023/07/21 08:35:08;;;;;;;3.20;2.70;;;;;;;28.89;44.03;101334.71;107124;1256;22524;-50
2023/07/21 08:37:38;;;;;;;4.10;2.40;;;;;;;28.93;44.07;101339.31;106942;1256;25351;-50
2023/07/21 08:40:06;;;;;;;3.50;2.70;;;;;;;28.98;43.60;101343.34;107065;1262;25207;-50
2023/07/21 08:42:35;;;;;;;4.40;2.30;;;;;;;29.04;43.04;101343.61;106806;1266;25443;-50
2023/07/21 08:45:04;;;;;;;3.70;2.50;;;;;;;29.08;43.36;101341.21;107102;1256;22656;-49
2023/07/21 08:47:32;;;;;;;2.80;2.20;;;;;;;29.15;43.41;101337.62;107170;1259;25229;-49
2023/07/21 08:49:59;;;;;;;5.20;2.50;;;;;;;29.22;43.00;101338.23;106992;1265;25399;-50
2023/07/21 08:52:26;;;;;;;10.50;9.50;;;;;;;29.26;42.99;101338.69;106973;1266;25341;-49
2023/07/21 08:54:53;;;;;;;10.00;9.10;;;;;;;29.33;44.15;101337.03;107071;1264;25332;-49
2023/07/21 08:57:20;;;;;;;5.80;5.30;;;;;;;29.39;44.20;101347.16;106901;1256;25338;-49
2023/07/21 08:59:49;;;;;;;5.10;4.60;;;;;;;29.43;43.42;101345.51;106914;1271;23747;-49
2023/07/21 09:02:16;;;;;;;77.00;69.80;;;;;;;29.51;43.88;101347.54;106841;1267;25345;-49
2023/07/21 09:04:45;;;;;;;46.30;42.30;;;;;;;29.59;44.49;101349.09;106836;1267;25473;-49
2023/07/21 09:07:12;;;;;;;35.00;31.70;;;;;;;29.67;44.65;101353.48;107147;1256;22646;-49
2023/07/21 09:09:43;;;;;;;70.40;64.00;;;;;;;29.76;44.68;101353.38;106757;1266;23252;-50
2023/07/21 09:12:11;;;;;;;33.30;30.50;;;;;;;29.84;44.38;101353.05;107014;1258;24379;-50
2023/07/21 09:14:44;;;;;;;35.80;32.60;;;;;;;29.88;44.15;101353.75;106861;1268;23895;-49
2023/07/21 09:17:12;;;;;;;18.50;16.90;;;;;;;29.92;43.98;101351.94;106920;1259;25506;-49
2023/07/21 09:19:42;;;;;;;83.20;75.60;;;;;;;29.98;44.48;101352.77;107069;1262;25399;-49
2023/07/21 09:22:09;;;;;;;23.60;21.60;;;;;;;30.02;44.56;101356.70;107118;1252;25353;-50
2023/07/21 09:24:39;;;;;;;10.00;9.10;;;;;;;30.05;45.05;101357.62;106924;1261;25351;-51
2023/07/21 09:27:10;;;;;;;5.50;5.00;;;;;;;30.06;44.27;101360.02;106984;1264;25443;-51
2023/07/21 09:29:37;;;;;;;7.00;6.30;;;;;;;30.09;44.09;101359.59;106912;1264;22625;-52
2023/07/21 09:32:25;;;;;;;25.90;23.60;;;;;;;30.12;43.35;101365.23;106908;1265;25412;-50
2023/07/21 09:34:56;;;;;;;12.90;11.60;;;;;;;30.11;42.89;101362.76;106905;1264;25472;-50
2023/07/21 09:37:34;;;;;;;17.90;16.00;;;;;;;30.13;42.99;101359.19;106955;1260;25399;-51
2023/07/21 09:40:05;;;;;;;8.80;8.00;;;;;;;30.15;43.10;101367.96;106921;1261;25350;-51
2023/07/21 09:42:32;;;;;;;5.00;4.60;;;;;;;30.16;43.41;101369.45;107176;1263;25347;-49
2023/07/21 09:44:59;;;;;;;6.60;3.20;;;;;;;30.17;43.99;101363.84;107124;1256;25794;-50
2023/07/21 09:47:27;;;;;;;5.60;4.30;;;;;;;30.19;43.64;101365.25;107062;1251;25332;-49
2023/07/21 09:49:55;;;;;;;3.20;2.90;;;;;;;30.20;43.24;101367.29;106772;1261;25380;-50
2023/07/21 09:52:22;;;;;;;3.30;2.90;;;;;;;30.22;43.38;101372.14;107160;1257;25360;-49
2023/07/21 09:55:05;;;;;;;3.90;3.00;;;;;;;30.25;44.11;101375.98;107151;1264;25497;-49
2023/07/21 09:57:34;;;;;;;3.70;2.90;;;;;;;30.29;43.86;101378.80;106916;1267;25399;-50
2023/07/21 10:00:14;;;;;;;3.20;2.90;;;;;;;30.32;44.46;101383.85;107099;1259;25383;-50
2023/07/21 10:02:50;;;;;;;4.10;2.80;;;;;;;30.36;44.60;101381.49;107180;1265;25347;-50
2023/07/21 10:05:17;;;;;;;3.20;2.90;;;;;;;30.41;44.63;101379.48;107182;1262;25574;-49
2023/07/21 10:07:47;;;;;;;3.00;2.70;;;;;;;30.45;44.32;101381.19;106828;1258;25086;-49
2023/07/21 10:10:15;;;;;;;2.90;2.70;;;;;;;30.48;44.21;101378.05;106973;1262;25335;-51
2023/07/21 10:12:49;;;;;;;2.60;2.40;;;;;;;30.50;44.80;101378.20;106907;1257;22529;-50
2023/07/21 10:15:20;;;;;;;2.80;2.50;;;;;;;30.52;44.50;101380.86;106862;1267;25354;-50
2023/07/21 10:18:00;;;;;;;2.70;2.50;;;;;;;30.53;43.68;101377.00;106840;1274;25341;-50
2023/07/21 10:20:49;;;;;;;2.60;2.30;;;;;;;30.57;43.46;101377.25;107094;1265;25453;-50
2023/07/21 10:23:18;;;;;;;3.30;2.80;;;;;;;30.57;44.57;101376.34;107153;1262;24278;-50
2023/07/21 10:25:48;;;;;;;3.10;2.70;;;;;;;30.54;44.33;101371.89;106929;1258;24382;-50
2023/07/21 10:28:16;;;;;;;3.40;3.10;;;;;;;30.53;44.91;101371.64;107139;1256;25433;-50
2023/07/21 10:30:43;;;;;;;2.80;2.60;;;;;;;30.54;45.20;101372.83;106903;1265;25336;-50
2023/07/21 10:33:16;;;;;;;3.50;2.90;;;;;;;30.53;44.80;101370.59;107194;1265;25332;-49
2023/07/21 10:35:43;;;;;;;2.80;2.50;;;;;;;30.50;45.29;101371.42;107095;1255;22523;-50
2023/07/21 10:38:13;;;;;;;3.00;2.80;;;;;;;30.47;45.56;101373.27;107014;1262;25507;-49
2023/07/21 10:40:41;;;;;;;2.50;2.20;;;;;;;30.47;46.01;101373.13;107164;1265;25450;-50
2023/07/21 10:43:08;;;;;;;3.20;2.90;;;;;;;30.48;45.30;101370.46;107140;1262;22524;-50
2023/07/21 10:45:35;;;;;;;2.50;2.30;;;;;;;30.52;44.69;101372.30;107198;1256;25321;-50
2023/07/21 10:48:16;;;;;;;3.40;2.70;;;;;;;30.56;44.64;101370.36;106999;1262;25332;-51
2023/07/21 10:50:51;;;;;;;3.90;2.50;;;;;;;30.59;44.17;101371.30;107059;1255;22521;-50
2023/07/21 10:53:18;;;;;;;3.70;2.60;;;;;;;30.61;42.95;101371.27;107259;1262;22524;-49
2023/07/21 10:55:45;;;;;;;6.10;2.60;;;;;;;30.66;43.20;101372.43;106808;1268;25382;-49
2023/07/21 10:58:14;;;;;;;2.50;2.30;;;;;;;30.70;43.55;101368.43;106979;1265;22521;-49
2023/07/21 11:00:46;;;;;;;4.10;2.60;;;;;;;30.73;43.86;101367.84;107143;1256;25322;-49
2023/07/21 11:03:13;;;;;;;2.10;1.90;;;;;;;30.74;43.53;101368.70;106817;1271;25372;-50
2023/07/21 11:05:41;;;;;;;2.80;2.50;;;;;;;30.79;42.25;101375.30;107174;1266;25332;-50
2023/07/21 11:08:16;;;;;;;2.60;2.40;;;;;;;30.83;42.89;101368.03;106782;1267;25482;-50
2023/07/21 11:10:43;;;;;;;2.70;2.20;;;;;;;30.89;42.79;101365.86;107118;1256;25360;-50
2023/07/21 11:13:10;;;;;;;2.70;2.10;;;;;;;30.94;41.17;101367.67;107050;1259;22999;-49
2023/07/21 11:15:38;;;;;;;2.10;1.90;;;;;;;30.99;39.11;101364.30;107093;1265;25383;-50
2023/07/21 11:18:06;;;;;;;2.60;2.00;;;;;;;31.03;37.70;101367.84;107194;1256;25361;-50
2023/07/21 11:20:35;;;;;;;3.70;2.00;;;;;;;31.07;37.45;101373.77;107155;1262;22543;-51
2023/07/21 11:23:05;;;;;;;2.50;1.80;;;;;;;31.10;38.84;101375.92;107074;1262;23195;-50
2023/07/21 11:25:33;;;;;;;2.40;2.20;;;;;;;31.13;39.59;101375.83;107064;1263;25473;-50
2023/07/21 11:28:05;;;;;;;2.80;2.10;;;;;;;31.16;40.37;101377.34;107069;1263;25314;-50
2023/07/21 11:30:33;;;;;;;3.90;2.80;;;;;;;31.18;41.16;101379.79;107044;1262;25334;-50